Time;durP1;ratioP1;P1;durP2;ratioP2;P2;SDS_P1;SDS_P2;PMS_P1;PMS_P2;Temp;Humidity;BMP_temperature;BMP_pressure;BME280_temperature;BME280_humidity;BME280_pressure;Samples;Min_cycle;Max_cycle;Signal;HPM_P1;HPM_P2
2022/03/16 00:01:02;;;;;;;;;;;;;;;;;;5034157;28;912;-60
2022/03/16 00:03:27;;;;;;;;;;;;;;;;;;5033889;28;1110;-60
2022/03/16 00:05:54;;;;;;;;;;;;;;;;;;5033780;28;1065;-61
2022/03/16 00:08:19;;;;;;;;;;;;;;;;;;5034220;28;877;-60
2022/03/16 00:10:44;;;;;;;;;;;;;;;;;;5032839;28;943;-60
2022/03/16 00:13:10;;;;;;;;;;;;;;;;;;5033856;28;805;-60
2022/03/16 00:15:35;;;;;;;;;;;;;;;;;;5033363;28;1973;-60
2022/03/16 00:18:00;;;;;;;;;;;;;;;;;;5034144;28;778;-60
2022/03/16 00:20:25;;;;;;;;;;;;;;;;;;5033943;28;872;-60
2022/03/16 00:22:51;;;;;;;;;;;;;;;;;;5033309;28;850;-60
2022/03/16 00:25:16;;;;;;;;;;;;;;;;;;5033987;28;896;-60
2022/03/16 00:27:41;;;;;;;;;;;;;;;;;;5033189;28;967;-60
2022/03/16 00:30:07;;;;;;;;;;;;;;;;;;5033361;28;941;-60
2022/03/16 00:32:32;;;;;;;;;;;;;;;;;;5032777;28;951;-60
2022/03/16 00:34:58;;;;;;;;;;;;;;;;;;5047683;28;1344;-60
2022/03/16 00:37:23;;;;;;;;;;;;;;;;;;5033064;28;1902;-60
2022/03/16 00:39:48;;;;;;;;;;;;;;;;;;5032775;28;971;-59
2022/03/16 00:42:13;;;;;;;;;;;;;;;;;;5033011;28;912;-60
2022/03/16 00:44:39;;;;;;;;;;;;;;;;;;5032806;28;825;-60
2022/03/16 00:47:04;;;;;;;;;;;;;;;;;;5032820;28;1171;-60
2022/03/16 00:49:29;;;;;;;;;;;;;;;;;;5032982;28;821;-60
2022/03/16 00:51:55;;;;;;;;;;;;;;;;;;5032648;28;876;-60
2022/03/16 00:54:20;;;;;;;;;;;;;;;;;;5033504;28;845;-60
2022/03/16 00:56:46;;;;;;;;;;;;;;;;;;5015051;28;1910;-60
2022/03/16 00:59:11;;;;;;;;;;;;;;;;;;5015335;28;1048;-60
2022/03/16 01:01:36;;;;;;;;;;;;;;;;;;5031540;28;964;-59
2022/03/16 01:04:02;;;;;;;;;;;;;;;;;;5015100;28;1349;-60
2022/03/16 01:06:27;;;;;;;;;;;;;;;;;;5032757;28;1131;-60
2022/03/16 01:08:52;;;;;;;;;;;;;;;;;;5032512;28;851;-60
2022/03/16 01:11:17;;;;;;;;;;;;;;;;;;5033158;28;840;-60
2022/03/16 01:13:43;;;;;;;;;;;;;;;;;;5032475;28;828;-60
2022/03/16 01:16:08;;;;;;;;;;;;;;;;;;5032283;28;1979;-60
2022/03/16 01:18:34;;;;;;;;;;;;;;;;;;5032223;28;788;-60
2022/03/16 01:20:59;;;;;;;;;;;;;;;;;;5032319;28;868;-60
2022/03/16 01:23:25;;;;;;;;;;;;;;;;;;5031617;28;942;-60
2022/03/16 01:25:50;;;;;;;;;;;;;;;;;;5031984;28;934;-60
2022/03/16 01:28:16;;;;;;;;;;;;;;;;;;5032265;28;880;-60
2022/03/16 01:30:44;;;;;;;;;;;;;;;;;;5031380;28;904;-60
2022/03/16 01:33:10;;;;;;;;;;;;;;;;;;5031733;28;1058;-60
2022/03/16 01:35:35;;;;;;;;;;;;;;;;;;5031570;28;1914;-60
2022/03/16 01:38:00;;;;;;;;;;;;;;;;;;5031580;28;936;-60
2022/03/16 01:40:25;;;;;;;;;;;;;;;;;;5031637;28;990;-60
2022/03/16 01:42:51;;;;;;;;;;;;;;;;;;5031344;28;928;-60
2022/03/16 01:45:16;;;;;;;;;;;;;;;;;;5032026;28;848;-60
2022/03/16 01:47:41;;;;;;;;;;;;;;;;;;5031212;28;834;-60
2022/03/16 01:50:08;;;;;;;;;;;;;;;;;;5013497;28;1160;-60
2022/03/16 01:52:33;;;;;;;;;;;;;;;;;;5031300;28;817;-60
2022/03/16 01:55:02;;;;;;;;;;;;;;;;;;5031417;28;821;-60
2022/03/16 01:57:28;;;;;;;;;;;;;;;;;;5031454;28;1899;-60
2022/03/16 01:59:53;;;;;;;;;;;;;;;;;;5030981;28;916;-60
2022/03/16 02:02:19;;;;;;;;;;;;;;;;;;5031624;28;833;-60
2022/03/16 02:04:44;;;;;;;;;;;;;;;;;;5013255;28;1190;-59
2022/03/16 02:07:10;;;;;;;;;;;;;;;;;;5031463;28;895;-60
2022/03/16 02:09:35;;;;;;;;;;;;;;;;;;5031273;28;837;-60
2022/03/16 02:12:01;;;;;;;;;;;;;;;;;;5030794;28;821;-60
2022/03/16 02:14:26;;;;;;;;;;;;;;;;;;5013606;28;837;-60
2022/03/16 02:16:51;;;;;;;;;;;;;;;;;;5030538;28;1964;-61
2022/03/16 02:19:17;;;;;;;;;;;;;;;;;;5031350;28;865;-61
2022/03/16 02:21:45;;;;;;;;;;;;;;;;;;5030792;28;750;-60
2022/03/16 02:24:10;;;;;;;;;;;;;;;;;;5030878;28;900;-60
2022/03/16 02:26:35;;;;;;;;;;;;;;;;;;5031099;28;817;-60
2022/03/16 02:29:00;;;;;;;;;;;;;;;;;;5031280;28;845;-61
2022/03/16 02:31:26;;;;;;;;;;;;;;;;;;5030795;28;1051;-61
2022/03/16 02:33:52;;;;;;;;;;;;;;;;;;5030614;28;841;-60
2022/03/16 02:36:17;;;;;;;;;;;;;;;;;;5031654;28;1902;-60
2022/03/16 02:38:42;;;;;;;;;;;;;;;;;;5031128;28;787;-61
2022/03/16 02:41:07;;;;;;;;;;;;;;;;;;5031119;28;1050;-61
2022/03/16 02:43:33;;;;;;;;;;;;;;;;;;5031381;28;798;-60
2022/03/16 02:45:58;;;;;;;;;;;;;;;;;;5031099;28;837;-60
2022/03/16 02:48:23;;;;;;;;;;;;;;;;;;5031443;28;895;-60
2022/03/16 02:50:49;;;;;;;;;;;;;;;;;;5031498;28;853;-60
2022/03/16 02:53:15;;;;;;;;;;;;;;;;;;5031237;28;1070;-60
2022/03/16 02:55:40;;;;;;;;;;;;;;;;;;5030898;28;1945;-60
2022/03/16 02:58:05;;;;;;;;;;;;;;;;;;5030955;28;1056;-60
2022/03/16 03:00:31;;;;;;;;;;;;;;;;;;5030622;28;851;-60
2022/03/16 03:02:56;;;;;;;;;;;;;;;;;;5030880;28;828;-60
2022/03/16 03:05:22;;;;;;;;;;;;;;;;;;5030305;28;1059;-60
2022/03/16 03:07:47;;;;;;;;;;;;;;;;;;5030624;28;920;-60
2022/03/16 03:10:12;;;;;;;;;;;;;;;;;;5030515;28;821;-60
2022/03/16 03:12:37;;;;;;;;;;;;;;;;;;5030565;28;864;-60
2022/03/16 03:15:03;;;;;;;;;;;;;;;;;;5029996;28;971;-60
2022/03/16 03:17:29;;;;;;;;;;;;;;;;;;5030514;28;1906;-60
2022/03/16 03:19:54;;;;;;;;;;;;;;;;;;5030452;28;758;-61
2022/03/16 03:22:19;;;;;;;;;;;;;;;;;;5030645;28;868;-60
2022/03/16 03:24:44;;;;;;;;;;;;;;;;;;5012715;28;904;-61
2022/03/16 03:27:10;;;;;;;;;;;;;;;;;;5030283;28;809;-61
2022/03/16 03:29:36;;;;;;;;;;;;;;;;;;5030293;28;911;-61
2022/03/16 03:32:01;;;;;;;;;;;;;;;;;;5030468;28;897;-60
2022/03/16 03:34:26;;;;;;;;;;;;;;;;;;5030620;28;857;-60
2022/03/16 03:36:51;;;;;;;;;;;;;;;;;;5030292;28;1969;-60
2022/03/16 03:39:17;;;;;;;;;;;;;;;;;;5030319;28;856;-60
2022/03/16 03:41:43;;;;;;;;;;;;;;;;;;5030142;28;895;-60
2022/03/16 03:44:08;;;;;;;;;;;;;;;;;;5030123;28;899;-60
2022/03/16 03:46:33;;;;;;;;;;;;;;;;;;5032366;28;912;-60
2022/03/16 03:48:59;;;;;;;;;;;;;;;;;;5033981;28;792;-60
2022/03/16 03:51:24;;;;;;;;;;;;;;;;;;5034089;28;849;-60
2022/03/16 03:53:49;;;;;;;;;;;;;;;;;;5033569;28;896;-60
2022/03/16 03:56:15;;;;;;;;;;;;;;;;;;5015406;28;1943;-61
2022/03/16 03:58:40;;;;;;;;;;;;;;;;;;5033351;28;885;-61
2022/03/16 04:01:08;;;;;;;;;;;;;;;;;;5033333;28;946;-61
2022/03/16 04:03:33;;;;;;;;;;;;;;;;;;5015675;28;1379;-60
2022/03/16 04:05:59;;;;;;;;;;;;;;;;;;5033209;28;1285;-60
2022/03/16 04:08:24;;;;;;;;;;;;;;;;;;5033819;28;801;-61
2022/03/16 04:10:49;;;;;;;;;;;;;;;;;;5033822;28;1055;-60
2022/03/16 04:13:15;;;;;;;;;;;;;;;;;;5033545;28;825;-60
2022/03/16 04:15:40;;;;;;;;;;;;;;;;;;5033243;28;1910;-61
2022/03/16 04:18:05;;;;;;;;;;;;;;;;;;5033967;28;798;-60
2022/03/16 04:20:31;;;;;;;;;;;;;;;;;;5033299;28;1003;-61
2022/03/16 04:22:56;;;;;;;;;;;;;;;;;;5033891;28;976;-60
2022/03/16 04:25:21;;;;;;;;;;;;;;;;;;5033719;28;987;-60
2022/03/16 04:27:46;;;;;;;;;;;;;;;;;;5034244;28;865;-60
2022/03/16 04:30:12;;;;;;;;;;;;;;;;;;5033468;28;814;-60
2022/03/16 04:32:37;;;;;;;;;;;;;;;;;;5033476;28;889;-60
2022/03/16 04:35:02;;;;;;;;;;;;;;;;;;5033385;28;983;-60
2022/03/16 04:37:28;;;;;;;;;;;;;;;;;;5033300;28;1933;-60
2022/03/16 04:39:53;;;;;;;;;;;;;;;;;;5033081;28;1200;-60
2022/03/16 04:42:18;;;;;;;;;;;;;;;;;;5033489;28;999;-60
2022/03/16 04:44:43;;;;;;;;;;;;;;;;;;5033199;28;948;-60
2022/03/16 04:47:09;;;;;;;;;;;;;;;;;;5033106;28;836;-60
2022/03/16 04:49:34;;;;;;;;;;;;;;;;;;5015497;28;905;-61
2022/03/16 04:51:59;;;;;;;;;;;;;;;;;;5033212;28;814;-60
2022/03/16 04:54:24;;;;;;;;;;;;;;;;;;5032923;28;821;-60
2022/03/16 04:56:50;;;;;;;;;;;;;;;;;;5048131;28;1984;-60
2022/03/16 04:59:17;;;;;;;;;;;;;;;;;;5032852;28;888;-60
2022/03/16 05:01:42;;;;;;;;;;;;;;;;;;5033218;28;813;-60
2022/03/16 05:04:07;;;;;;;;;;;;;;;;;;5032769;28;956;-60
2022/03/16 05:06:33;;;;;;;;;;;;;;;;;;5032287;28;1276;-60
2022/03/16 05:08:58;;;;;;;;;;;;;;;;;;5032763;28;945;-60
2022/03/16 05:11:23;;;;;;;;;;;;;;;;;;5032015;28;907;-60
2022/03/16 05:13:49;;;;;;;;;;;;;;;;;;5032344;28;891;-60
2022/03/16 05:16:15;;;;;;;;;;;;;;;;;;5032064;28;1985;-60
2022/03/16 05:18:43;;;;;;;;;;;;;;;;;;5032417;28;980;-60
2022/03/16 05:21:08;;;;;;;;;;;;;;;;;;5014494;28;896;-60
2022/03/16 05:23:34;;;;;;;;;;;;;;;;;;5032238;28;822;-60
2022/03/16 05:25:59;;;;;;;;;;;;;;;;;;5032178;28;951;-60
2022/03/16 05:28:25;;;;;;;;;;;;;;;;;;5031313;28;1047;-60
2022/03/16 05:30:50;;;;;;;;;;;;;;;;;;5032244;28;814;-60
2022/03/16 05:33:16;;;;;;;;;;;;;;;;;;5014239;28;1633;-60
2022/03/16 05:35:41;;;;;;;;;;;;;;;;;;5031416;28;1910;-60
2022/03/16 05:38:08;;;;;;;;;;;;;;;;;;5031554;28;989;-60
2022/03/16 05:40:34;;;;;;;;;;;;;;;;;;5013674;28;1383;-60
2022/03/16 05:42:59;;;;;;;;;;;;;;;;;;5031846;28;801;-60
2022/03/16 05:45:24;;;;;;;;;;;;;;;;;;5013771;28;1056;-60
2022/03/16 05:47:49;;;;;;;;;;;;;;;;;;5031798;28;912;-60
2022/03/16 05:50:15;;;;;;;;;;;;;;;;;;5031786;28;960;-60
2022/03/16 05:52:43;;;;;;;;;;;;;;;;;;5031552;28;908;-60
2022/03/16 05:55:09;;;;;;;;;;;;;;;;;;5031956;28;880;-60
2022/03/16 05:57:37;;;;;;;;;;;;;;;;;;5030868;28;1957;-60
2022/03/16 06:00:03;;;;;;;;;;;;;;;;;;5031393;28;1279;-60
2022/03/16 06:02:28;;;;;;;;;;;;;;;;;;5031242;28;1050;-60
2022/03/16 06:04:53;;;;;;;;;;;;;;;;;;5031399;28;837;-60
2022/03/16 06:07:19;;;;;;;;;;;;;;;;;;5031190;28;1227;-60
2022/03/16 06:09:44;;;;;;;;;;;;;;;;;;5013466;28;897;-60
2022/03/16 06:12:10;;;;;;;;;;;;;;;;;;5031542;28;778;-60
2022/03/16 06:14:35;;;;;;;;;;;;;;;;;;5031399;28;876;-60
2022/03/16 06:17:00;;;;;;;;;;;;;;;;;;5030364;28;1906;-59
2022/03/16 06:19:26;;;;;;;;;;;;;;;;;;5040479;28;1153;-60
2022/03/16 06:21:51;;;;;;;;;;;;;;;;;;5051164;28;825;-60
2022/03/16 06:24:16;;;;;;;;;;;;;;;;;;5051097;28;817;-59
2022/03/16 06:26:42;;;;;;;;;;;;;;;;;;5051163;28;908;-60
2022/03/16 06:29:07;;;;;;;;;;;;;;;;;;5051225;28;848;-60
2022/03/16 06:31:33;;;;;;;;;;;;;;;;;;5050944;28;975;-60
2022/03/16 06:33:58;;;;;;;;;;;;;;;;;;5051062;28;897;-60
2022/03/16 06:36:24;;;;;;;;;;;;;;;;;;5050869;28;1894;-60
2022/03/16 06:38:49;;;;;;;;;;;;;;;;;;5051044;28;943;-60
2022/03/16 06:41:15;;;;;;;;;;;;;;;;;;5051321;28;943;-59
2022/03/16 06:43:40;;;;;;;;;;;;;;;;;;5050899;28;899;-60
2022/03/16 06:46:06;;;;;;;;;;;;;;;;;;5051763;28;852;-59
2022/03/16 06:48:31;;;;;;;;;;;;;;;;;;5032770;28;892;-60
2022/03/16 06:50:57;;;;;;;;;;;;;;;;;;5050857;28;951;-60
2022/03/16 06:53:23;;;;;;;;;;;;;;;;;;5050666;28;831;-60
2022/03/16 06:55:49;;;;;;;;;;;;;;;;;;5050857;28;1971;-59
2022/03/16 06:58:14;;;;;;;;;;;;;;;;;;5050926;28;970;-59
2022/03/16 07:00:39;;;;;;;;;;;;;;;;;;5050954;28;833;-59
2022/03/16 07:03:05;;;;;;;;;;;;;;;;;;5051377;28;884;-58
2022/03/16 07:05:32;;;;;;;;;;;;;;;;;;5050428;28;1258;-59
2022/03/16 07:08:02;;;;;;;;;;;;;;;;;;5032749;28;841;-59
2022/03/16 07:10:28;;;;;;;;;;;;;;;;;;5050384;28;1006;-59
2022/03/16 07:12:53;;;;;;;;;;;;;;;;;;5050694;28;1229;-59
2022/03/16 07:15:19;;;;;;;;;;;;;;;;;;5050568;28;1189;-59
2022/03/16 07:17:44;;;;;;;;;;;;;;;;;;5032190;28;1969;-59
2022/03/16 07:20:10;;;;;;;;;;;;;;;;;;5051146;28;852;-59
2022/03/16 07:22:35;;;;;;;;;;;;;;;;;;5054248;28;935;-59
2022/03/16 07:25:04;;;;;;;;;;;;;;;;;;5036282;28;1186;-59
2022/03/16 07:27:30;;;;;;;;;;;;;;;;;;5054882;28;845;-58
2022/03/16 07:29:55;;;;;;;;;;;;;;;;;;5054397;28;799;-59
2022/03/16 07:32:20;;;;;;;;;;;;;;;;;;5054628;28;955;-59
2022/03/16 07:34:46;;;;;;;;;;;;;;;;;;5054284;28;1061;-60
2022/03/16 07:37:11;;;;;;;;;;;;;;;;;;5054840;28;1906;-59
2022/03/16 07:39:37;;;;;;;;;;;;;;;;;;5054026;28;907;-59
2022/03/16 07:42:02;;;;;;;;;;;;;;;;;;5035531;28;1007;-59
2022/03/16 07:44:27;;;;;;;;;;;;;;;;;;5053590;28;1139;-59
2022/03/16 07:46:52;;;;;;;;;;;;;;;;;;5053710;28;821;-59
2022/03/16 07:49:18;;;;;;;;;;;;;;;;;;5054362;28;833;-60
2022/03/16 07:51:43;;;;;;;;;;;;;;;;;;5053439;28;868;-59
2022/03/16 07:54:08;;;;;;;;;;;;;;;;;;5036171;28;925;-59
2022/03/16 07:56:34;;;;;;;;;;;;;;;;;;5035682;28;1914;-59
2022/03/16 07:59:01;;;;;;;;;;;;;;;;;;5069110;28;885;-59
2022/03/16 08:01:26;;;;;;;;;;;;;;;;;;5053849;28;877;-60
2022/03/16 08:03:51;;;;;;;;;;;;;;;;;;5053472;28;1019;-60
2022/03/16 08:06:17;;;;;;;;;;;;;;;;;;5053619;28;1317;-59
2022/03/16 08:08:42;;;;;;;;;;;;;;;;;;5053672;28;835;-59
2022/03/16 08:11:08;;;;;;;;;;;;;;;;;;5035692;28;825;-59
2022/03/16 08:13:34;;;;;;;;;;;;;;;;;;5053746;28;854;-60
2022/03/16 08:15:59;;;;;;;;;;;;;;;;;;5053414;28;1914;-60
2022/03/16 08:18:25;;;;;;;;;;;;;;;;;;5053400;28;877;-60
2022/03/16 08:20:50;;;;;;;;;;;;;;;;;;5053497;28;857;-59
2022/03/16 08:23:16;;;;;;;;;;;;;;;;;;5053750;28;841;-59
2022/03/16 08:25:41;;;;;;;;;;;;;;;;;;5053243;28;951;-59
2022/03/16 08:28:06;;;;;;;;;;;;;;;;;;5054171;28;861;-59
2022/03/16 08:30:34;;;;;;;;;;;;;;;;;;5053676;28;840;-59
2022/03/16 08:32:59;;;;;;;;;;;;;;;;;;5053455;28;830;-59
2022/03/16 08:35:24;;;;;;;;;;;;;;;;;;5054544;28;805;-59
2022/03/16 08:37:50;;;;;;;;;;;;;;;;;;5053852;28;1894;-59
2022/03/16 08:40:16;;;;;;;;;;;;;;;;;;5036390;28;1291;-59
2022/03/16 08:42:42;;;;;;;;;;;;;;;;;;5053676;28;933;-59
2022/03/16 08:45:07;;;;;;;;;;;;;;;;;;5054347;28;809;-59
2022/03/16 08:47:33;;;;;;;;;;;;;;;;;;5054005;28;828;-59
2022/03/16 08:49:58;;;;;;;;;;;;;;;;;;5053941;28;1006;-59
2022/03/16 08:52:23;;;;;;;;;;;;;;;;;;5054009;28;1003;-59
2022/03/16 08:54:50;;;;;;;;;;;;;;;;;;5035312;28;1089;-59
2022/03/16 08:57:16;;;;;;;;;;;;;;;;;;5035675;28;1989;-59
2022/03/16 08:59:41;;;;;;;;;;;;;;;;;;5054117;28;813;-59
2022/03/16 09:02:07;;;;;;;;;;;;;;;;;;5053868;28;914;-59
2022/03/16 09:04:34;;;;;;;;;;;;;;;;;;5054244;28;900;-61
2022/03/16 09:06:59;;;;;;;;;;;;;;;;;;5053316;28;1152;-59
2022/03/16 09:09:25;;;;;;;;;;;;;;;;;;5053724;28;896;-59
2022/03/16 09:11:50;;;;;;;;;;;;;;;;;;5053158;28;972;-59
2022/03/16 09:14:16;;;;;;;;;;;;;;;;;;5053436;28;857;-58
2022/03/16 09:16:41;;;;;;;;;;;;;;;;;;5052534;28;1981;-59
2022/03/16 09:19:07;;;;;;;;;;;;;;;;;;5052737;28;979;-59
2022/03/16 09:21:32;;;;;;;;;;;;;;;;;;5052899;28;925;-59
2022/03/16 09:23:59;;;;;;;;;;;;;;;;;;5051799;28;868;-60
2022/03/16 09:26:25;;;;;;;;;;;;;;;;;;5034238;28;1394;-60
2022/03/16 09:28:51;;;;;;;;;;;;;;;;;;5051855;28;849;-59
2022/03/16 09:31:16;;;;;;;;;;;;;;;;;;5034547;28;1388;-60
2022/03/16 09:33:42;;;;;;;;;;;;;;;;;;5052000;28;931;-60
2022/03/16 09:36:11;;;;;;;;;;;;;;;;;;5052244;28;1955;-60
2022/03/16 09:38:37;;;;;;;;;;;;;;;;;;5051567;28;906;-61
2022/03/16 09:41:04;;;;;;;;;;;;;;;;;;5051974;28;1151;-59
2022/03/16 09:43:33;;;;;;;;;;;;;;;;;;5051368;28;922;-59
2022/03/16 09:46:09;;;;;;;;;;;;;;;;;;5051477;28;932;-60
2022/03/16 09:48:34;;;;;;;;;;;;;;;;;;5052159;28;918;-59
2022/03/16 09:51:00;;;;;;;;;;;;;;;;;;5051659;28;850;-59
2022/03/16 09:53:29;;;;;;;;;;;;;;;;;;5034739;28;810;-59
2022/03/16 09:55:57;;;;;;;;;;;;;;;;;;5051256;28;1882;-61
2022/03/16 09:58:23;;;;;;;;;;;;;;;;;;5033790;28;1019;-60
2022/03/16 10:00:48;;;;;;;;;;;;;;;;;;5051295;28;824;-60
2022/03/16 10:03:15;;;;;;;;;;;;;;;;;;5051544;28;944;-60
2022/03/16 10:05:40;;;;;;;;;;;;;;;;;;5033197;28;928;-60
2022/03/16 10:08:08;;;;;;;;;;;;;;;;;;5051270;28;1085;-60
2022/03/16 10:13:21;;;;;;;;;;;;;;;;;;5051803;28;746;-60
2022/03/16 10:15:46;;;;;;;;;;;;;;;;;;5050857;28;1961;-60
2022/03/16 10:18:14;;;;;;;;;;;;;;;;;;5050982;28;1023;-60
2022/03/16 10:20:40;;;;;;;;;;;;;;;;;;5051137;28;904;-60
2022/03/16 10:23:07;;;;;;;;;;;;;;;;;;5032942;28;832;-61
2022/03/16 10:25:39;;;;;;;;;;;;;;;;;;5051749;28;860;-60
2022/03/16 10:28:12;;;;;;;;;;;;;;;;;;5051089;28;853;-60
2022/03/16 10:30:49;;;;;;;;;;;;;;;;;;5051483;28;844;-60
2022/03/16 10:33:15;;;;;;;;;;;;;;;;;;5034220;28;900;-60
2022/03/16 10:35:53;;;;;;;;;;;;;;;;;;5050515;28;1883;-60
2022/03/16 10:38:21;;;;;;;;;;;;;;;;;;5051929;28;895;-60
2022/03/16 10:40:46;;;;;;;;;;;;;;;;;;5051214;28;868;-60
2022/03/16 10:49:00;;;;;;;;;;;;;;;;;;5008576;28;1272;-60
2022/03/16 10:51:26;;;;;;;;;;;;;;;;;;5009386;28;912;-60
2022/03/16 10:53:52;;;;;;;;;;;;;;;;;;5028237;28;1082;-60
2022/03/16 10:56:18;;;;;;;;;;;;;;;;;;5055363;28;1890;-60
2022/03/16 10:58:45;;;;;;;;;;;;;;;;;;5055432;28;947;-60
2022/03/16 11:01:12;;;;;;;;;;;;;;;;;;5055169;28;911;-60
2022/03/16 11:03:38;;;;;;;;;;;;;;;;;;5055595;28;766;-60
2022/03/16 11:06:03;;;;;;;;;;;;;;;;;;5054329;28;1046;-59
2022/03/16 11:08:35;;;;;;;;;;;;;;;;;;5054665;28;1050;-60
2022/03/16 11:13:27;;;;;;;;;;;;;;;;;;5054668;28;879;-59
2022/03/16 11:13:49;;;;;;;;;;;;;;;;;;5054662;28;792;-59
2022/03/16 11:16:19;;;;;;;;;;;;;;;;;;5054565;28;1981;-59
2022/03/16 11:18:46;;;;;;;;;;;;;;;;;;5055028;28;825;-60
2022/03/16 11:21:13;;;;;;;;;;;;;;;;;;5054390;28;936;-59
2022/03/16 11:26:34;;;;;;;;;;;;;;;;;;5054570;28;676;-60
2022/03/16 11:29:00;;;;;;;;;;;;;;;;;;5035880;28;805;-59
2022/03/16 11:31:29;;;;;;;;;;;;;;;;;;5054392;28;890;-60
2022/03/16 11:33:55;;;;;;;;;;;;;;;;;;5053725;28;996;-60
2022/03/16 11:36:35;;;;;;;;;;;;;;;;;;5054528;28;1973;-59
2022/03/16 11:39:02;;;;;;;;;;;;;;;;;;5054014;28;852;-60
2022/03/16 11:41:28;;;;;;;;;;;;;;;;;;5054298;28;964;-59
2022/03/16 11:43:57;;;;;;;;;;;;;;;;;;5054020;28;1246;-60
2022/03/16 11:46:29;;;;;;;;;;;;;;;;;;5054529;28;1008;-61
2022/03/16 11:49:02;;;;;;;;;;;;;;;;;;5053923;28;1111;-60
2022/03/16 11:51:28;;;;;;;;;;;;;;;;;;5054117;28;860;-60
2022/03/16 11:54:01;;;;;;;;;;;;;;;;;;5053679;28;1145;-60
2022/03/16 11:56:26;;;;;;;;;;;;;;;;;;5053968;28;1965;-60
2022/03/16 11:59:05;;;;;;;;;;;;;;;;;;5053770;28;907;-60
2022/03/16 12:01:37;;;;;;;;;;;;;;;;;;5054847;28;852;-60
2022/03/16 12:04:12;;;;;;;;;;;;;;;;;;5053585;28;832;-60
2022/03/16 12:06:50;;;;;;;;;;;;;;;;;;5034686;28;1229;-60
2022/03/16 12:09:24;;;;;;;;;;;;;;;;;;5034934;28;1568;-60
2022/03/16 12:15:00;;;;;;;;;;;;;;;;;;5053070;28;641;-60
2022/03/16 12:17:26;;;;;;;;;;;;;;;;;;5053043;28;1971;-60
2022/03/16 12:20:10;;;;;;;;;;;;;;;;;;5053138;28;805;-60
2022/03/16 12:22:51;;;;;;;;;;;;;;;;;;5053122;28;821;-60
2022/03/16 12:25:26;;;;;;;;;;;;;;;;;;5052966;28;848;-60
2022/03/16 12:30:50;;;;;;;;;;;;;;;;;;5054287;28;651;-60
2022/03/16 12:33:22;;;;;;;;;;;;;;;;;;5035502;28;1811;-60
2022/03/16 12:36:14;;;;;;;;;;;;;;;;;;5053333;28;1901;-60
2022/03/16 12:38:43;;;;;;;;;;;;;;;;;;5048910;28;1297;-60
2022/03/16 12:43:56;;;;;;;;;;;;;;;;;;5053262;28;644;-60
2022/03/16 12:46:32;;;;;;;;;;;;;;;;;;5053573;28;800;-60
2022/03/16 12:49:01;;;;;;;;;;;;;;;;;;5053105;28;839;-60
2022/03/16 12:51:36;;;;;;;;;;;;;;;;;;5052892;28;864;-60
2022/03/16 12:54:01;;;;;;;;;;;;;;;;;;5052451;28;864;-60
2022/03/16 12:56:26;;;;;;;;;;;;;;;;;;5052411;28;1898;-60
2022/03/16 12:58:52;;;;;;;;;;;;;;;;;;5050994;28;884;-60
2022/03/16 13:01:18;;;;;;;;;;;;;;;;;;5051374;28;793;-60
2022/03/16 13:03:43;;;;;;;;;;;;;;;;;;5052853;28;806;-60
2022/03/16 13:06:14;;;;;;;;;;;;;;;;;;5051820;28;1062;-60
2022/03/16 13:08:42;;;;;;;;;;;;;;;;;;5034407;28;1242;-60
2022/03/16 13:11:17;;;;;;;;;;;;;;;;;;5051778;28;922;-61
2022/03/16 13:13:46;;;;;;;;;;;;;;;;;;5052336;28;872;-60
2022/03/16 13:16:28;;;;;;;;;;;;;;;;;;5052141;28;1971;-61
2022/03/16 13:18:53;;;;;;;;;;;;;;;;;;5052273;28;909;-60
2022/03/16 13:21:25;;;;;;;;;;;;;;;;;;5052595;28;1095;-60
2022/03/16 13:24:04;;;;;;;;;;;;;;;;;;5052574;28;890;-60
2022/03/16 13:26:29;;;;;;;;;;;;;;;;;;5052863;28;790;-60
2022/03/16 13:28:57;;;;;;;;;;;;;;;;;;5052303;28;853;-60
2022/03/16 13:31:29;;;;;;;;;;;;;;;;;;5052089;28;900;-60
2022/03/16 13:34:01;;;;;;;;;;;;;;;;;;5051884;28;1022;-60
2022/03/16 13:36:34;;;;;;;;;;;;;;;;;;5051852;28;1961;-60
2022/03/16 13:39:01;;;;;;;;;;;;;;;;;;5052107;28;830;-60
2022/03/16 13:41:26;;;;;;;;;;;;;;;;;;5051434;28;865;-60
2022/03/16 13:44:04;;;;;;;;;;;;;;;;;;5051470;28;834;-60
2022/03/16 13:46:37;;;;;;;;;;;;;;;;;;5052137;28;813;-60
2022/03/16 13:49:07;;;;;;;;;;;;;;;;;;5051650;28;884;-60
2022/03/16 13:51:34;;;;;;;;;;;;;;;;;;5051735;28;843;-60
2022/03/16 13:54:02;;;;;;;;;;;;;;;;;;5051463;28;824;-60
2022/03/16 13:56:27;;;;;;;;;;;;;;;;;;5050924;28;1961;-60
2022/03/16 13:58:53;;;;;;;;;;;;;;;;;;5050993;28;1020;-60
2022/03/16 14:01:19;;;;;;;;;;;;;;;;;;5051480;28;890;-60
2022/03/16 14:03:44;;;;;;;;;;;;;;;;;;5051962;28;856;-60
2022/03/16 14:06:15;;;;;;;;;;;;;;;;;;5050810;28;1162;-61
2022/03/16 14:08:41;;;;;;;;;;;;;;;;;;5051340;28;860;-61
2022/03/16 14:11:07;;;;;;;;;;;;;;;;;;5050974;28;864;-60
2022/03/16 14:13:38;;;;;;;;;;;;;;;;;;5051561;28;914;-60
2022/03/16 14:16:10;;;;;;;;;;;;;;;;;;5050872;28;1910;-60
2022/03/16 14:18:35;;;;;;;;;;;;;;;;;;5051378;28;821;-60
2022/03/16 14:21:00;;;;;;;;;;;;;;;;;;5050975;28;912;-60
2022/03/16 14:23:28;;;;;;;;;;;;;;;;;;5051585;28;936;-60
2022/03/16 14:25:55;;;;;;;;;;;;;;;;;;5066240;28;1166;-60
2022/03/16 14:28:21;;;;;;;;;;;;;;;;;;5050883;28;903;-60
2022/03/16 14:30:50;;;;;;;;;;;;;;;;;;5033005;28;873;-60
2022/03/16 14:33:18;;;;;;;;;;;;;;;;;;5051120;28;816;-60
2022/03/16 14:35:44;;;;;;;;;;;;;;;;;;5051185;28;856;-60
2022/03/16 14:38:09;;;;;;;;;;;;;;;;;;5051447;28;1961;-60
2022/03/16 14:40:39;;;;;;;;;;;;;;;;;;5051079;28;888;-60
2022/03/16 14:43:05;;;;;;;;;;;;;;;;;;5050841;28;821;-60
2022/03/16 14:45:30;;;;;;;;;;;;;;;;;;5050906;28;927;-60
2022/03/16 14:47:56;;;;;;;;;;;;;;;;;;5050897;28;826;-60
2022/03/16 14:50:23;;;;;;;;;;;;;;;;;;5050626;28;959;-60
2022/03/16 14:52:49;;;;;;;;;;;;;;;;;;5050482;28;1169;-60
2022/03/16 14:55:14;;;;;;;;;;;;;;;;;;5032267;28;872;-60
2022/03/16 14:57:40;;;;;;;;;;;;;;;;;;5050219;28;1905;-60
2022/03/16 15:00:06;;;;;;;;;;;;;;;;;;5050337;28;915;-60
2022/03/16 15:02:33;;;;;;;;;;;;;;;;;;5049979;28;750;-60
2022/03/16 15:05:00;;;;;;;;;;;;;;;;;;5050177;28;912;-60
2022/03/16 15:07:27;;;;;;;;;;;;;;;;;;5049906;28;1391;-60
2022/03/16 15:09:52;;;;;;;;;;;;;;;;;;5050113;28;817;-64
2022/03/16 15:12:18;;;;;;;;;;;;;;;;;;5050167;28;955;-65
2022/03/16 15:14:43;;;;;;;;;;;;;;;;;;5050175;28;820;-64
2022/03/16 15:17:08;;;;;;;;;;;;;;;;;;5049838;28;1918;-64
2022/03/16 15:19:34;;;;;;;;;;;;;;;;;;5049932;28;863;-64
2022/03/16 15:22:00;;;;;;;;;;;;;;;;;;5050178;28;799;-65
2022/03/16 15:24:25;;;;;;;;;;;;;;;;;;5049881;28;931;-64
2022/03/16 15:26:50;;;;;;;;;;;;;;;;;;5050116;28;774;-64
2022/03/16 15:29:16;;;;;;;;;;;;;;;;;;5050393;28;805;-64
2022/03/16 15:31:41;;;;;;;;;;;;;;;;;;5049139;28;1169;-64
2022/03/16 15:34:07;;;;;;;;;;;;;;;;;;5031608;28;1162;-62
2022/03/16 15:36:33;;;;;;;;;;;;;;;;;;5050156;28;1967;-64
2022/03/16 15:38:58;;;;;;;;;;;;;;;;;;5049865;28;829;-64
2022/03/16 15:44:07;;;;;;;;;;;;;;;;;;5053603;28;675;-63
2022/03/16 15:46:33;;;;;;;;;;;;;;;;;;5052913;28;1275;-64
2022/03/16 15:49:01;;;;;;;;;;;;;;;;;;5035849;28;979;-64
2022/03/16 15:51:26;;;;;;;;;;;;;;;;;;5053632;28;883;-64
2022/03/16 15:53:51;;;;;;;;;;;;;;;;;;5053749;28;916;-64
2022/03/16 15:56:17;;;;;;;;;;;;;;;;;;5054214;28;1965;-64
2022/03/16 15:58:42;;;;;;;;;;;;;;;;;;5053429;28;828;-64
2022/03/16 16:01:09;;;;;;;;;;;;;;;;;;5053699;28;1175;-64
2022/03/16 16:03:34;;;;;;;;;;;;;;;;;;5053411;28;908;-65
2022/03/16 16:06:01;;;;;;;;;;;;;;;;;;5053160;28;1229;-64
2022/03/16 16:08:27;;;;;;;;;;;;;;;;;;5053288;28;1319;-63
2022/03/16 16:11:07;;;;;;;;;;;;;;;;;;5054024;28;809;-63
2022/03/16 16:13:33;;;;;;;;;;;;;;;;;;5053201;28;864;-62
2022/03/16 16:15:58;;;;;;;;;;;;;;;;;;5053167;28;1914;-63
2022/03/16 16:18:23;;;;;;;;;;;;;;;;;;5052893;28;939;-63
2022/03/16 16:20:49;;;;;;;;;;;;;;;;;;5053135;28;766;-64
2022/03/16 16:23:15;;;;;;;;;;;;;;;;;;5052149;28;1228;-64
2022/03/16 16:25:43;;;;;;;;;;;;;;;;;;5052866;28;929;-63
2022/03/16 16:28:11;;;;;;;;;;;;;;;;;;5052727;28;955;-63
2022/03/16 16:30:37;;;;;;;;;;;;;;;;;;5052295;28;943;-62
2022/03/16 16:33:05;;;;;;;;;;;;;;;;;;5034275;28;1227;-63
2022/03/16 16:35:31;;;;;;;;;;;;;;;;;;5052386;28;994;-64
2022/03/16 16:37:56;;;;;;;;;;;;;;;;;;5052418;28;1972;-63
2022/03/16 16:40:23;;;;;;;;;;;;;;;;;;5052788;28;805;-64
2022/03/16 16:45:34;;;;;;;;;;;;;;;;;;5052429;28;670;-64
2022/03/16 16:47:59;;;;;;;;;;;;;;;;;;5052238;28;837;-63
2022/03/16 16:50:25;;;;;;;;;;;;;;;;;;5034443;28;916;-65
2022/03/16 16:52:52;;;;;;;;;;;;;;;;;;5052835;28;852;-64
2022/03/16 16:55:17;;;;;;;;;;;;;;;;;;5035207;28;845;-64
2022/03/16 16:57:43;;;;;;;;;;;;;;;;;;5052153;28;1902;-64
2022/03/16 17:00:08;;;;;;;;;;;;;;;;;;5052456;28;968;-65
2022/03/16 17:02:38;;;;;;;;;;;;;;;;;;5052296;28;931;-65
2022/03/16 17:05:05;;;;;;;;;;;;;;;;;;5052217;28;854;-63
2022/03/16 17:07:30;;;;;;;;;;;;;;;;;;5051426;28;1375;-64
2022/03/16 17:09:55;;;;;;;;;;;;;;;;;;5052502;28;955;-65
2022/03/16 17:12:21;;;;;;;;;;;;;;;;;;5052742;28;900;-64
2022/03/16 17:14:46;;;;;;;;;;;;;;;;;;5053213;28;783;-65
2022/03/16 17:17:11;;;;;;;;;;;;;;;;;;5052292;28;1906;-65
2022/03/16 17:19:38;;;;;;;;;;;;;;;;;;5051926;28;881;-64
2022/03/16 17:22:03;;;;;;;;;;;;;;;;;;5033704;28;885;-65
2022/03/16 17:24:29;;;;;;;;;;;;;;;;;;5051845;28;959;-64
2022/03/16 17:26:55;;;;;;;;;;;;;;;;;;5034122;28;892;-64
2022/03/16 17:29:20;;;;;;;;;;;;;;;;;;5052337;28;876;-64
2022/03/16 17:31:46;;;;;;;;;;;;;;;;;;5051684;28;1602;-65
2022/03/16 17:34:11;;;;;;;;;;;;;;;;;;5051940;28;912;-65
2022/03/16 17:36:36;;;;;;;;;;;;;;;;;;5051780;28;1914;-64